createdAt,value
2022-11-13T00:00:20.560Z,68.5714
2022-11-13T00:01:20.588Z,68.6429
2022-11-13T00:02:20.651Z,68.6429
2022-11-13T00:03:20.655Z,68.7143
2022-11-13T00:04:20.688Z,68.7143
2022-11-13T00:05:20.724Z,68.7857
2022-11-13T00:06:20.759Z,68.8571
2022-11-13T00:07:20.923Z,68.9286
2022-11-13T00:08:20.818Z,68.9286
2022-11-13T00:09:20.856Z,68.9286
2022-11-13T00:10:20.882Z,68.9286
2022-11-13T00:11:20.917Z,68.8571
2022-11-13T00:12:20.951Z,68.8571
2022-11-13T00:13:22.325Z,68.9286
2022-11-13T00:14:21.018Z,68.8571
2022-11-13T00:15:21.052Z,68.7857
2022-11-13T00:16:21.084Z,68.7857
2022-11-13T00:17:21.122Z,68.8571
2022-11-13T00:18:21.147Z,68.8571
2022-11-13T00:19:21.181Z,69
2022-11-13T00:20:21.220Z,68.9286
2022-11-13T00:21:21.244Z,68.9286
2022-11-13T00:22:21.277Z,68.9286
2022-11-13T00:23:21.305Z,68.9286
2022-11-13T00:24:21.342Z,69
2022-11-13T00:25:21.376Z,68.9286
2022-11-13T00:26:21.402Z,68.9286
2022-11-13T00:27:21.433Z,68.9286
2022-11-13T00:28:21.457Z,68.8571
2022-11-13T00:29:21.493Z,68.7857
2022-11-13T00:30:21.533Z,68.7143
2022-11-13T00:31:21.570Z,68.6429
2022-11-13T00:32:21.600Z,68.6429
2022-11-13T00:33:38.577Z,68.7143
2022-11-13T00:34:46.618Z,68.7143
2022-11-13T00:35:21.699Z,68.7857
2022-11-13T00:36:24.685Z,68.8571
2022-11-13T00:37:21.775Z,68.8571
2022-11-13T00:38:21.817Z,68.8571
2022-11-13T00:39:21.846Z,68.8571
2022-11-13T00:40:21.874Z,68.7857
2022-11-13T00:41:21.906Z,68.7857
2022-11-13T00:42:21.944Z,68.7857
2022-11-13T00:43:21.970Z,68.8571
2022-11-13T00:44:22.000Z,68.9286
2022-11-13T00:45:22.037Z,69
2022-11-13T00:46:22.073Z,69.1429
2022-11-13T00:47:22.104Z,69.0714
2022-11-13T00:48:22.135Z,69.0714
2022-11-13T00:49:22.168Z,69.0714
2022-11-13T00:50:22.202Z,69.0714
2022-11-13T00:51:22.248Z,69.0714
2022-11-13T00:52:22.263Z,69.0714
2022-11-13T00:53:22.296Z,69.1429
2022-11-13T00:54:22.327Z,69.2143
2022-11-13T00:55:22.351Z,69.2857
2022-11-13T00:56:22.386Z,69.2857
2022-11-13T00:57:22.424Z,69.2143
2022-11-13T00:58:22.453Z,69.2143
2022-11-13T00:59:22.478Z,69.2143
2022-11-13T01:00:22.505Z,69.2143
2022-11-13T01:01:22.617Z,69.2857
2022-11-13T01:02:22.569Z,69.2857
2022-11-13T01:03:22.599Z,69.2857
2022-11-13T01:04:22.626Z,69.2857
2022-11-13T01:05:22.659Z,69.2857
2022-11-13T01:06:22.690Z,69.2857
2022-11-13T01:07:22.723Z,69.4286
2022-11-13T01:08:22.754Z,69.5
2022-11-13T01:09:22.789Z,69.5
2022-11-13T01:10:22.822Z,69.5
2022-11-13T01:11:22.848Z,69.5
2022-11-13T01:12:22.879Z,69.5
2022-11-13T01:13:22.902Z,69.5
2022-11-13T01:14:22.931Z,69.5
2022-11-13T01:15:22.969Z,69.4286
2022-11-13T01:16:23.001Z,69.4286
2022-11-13T01:17:23.026Z,69.4286
2022-11-13T01:18:23.063Z,69.3571
2022-11-13T01:19:23.087Z,69.4286
2022-11-13T01:20:23.118Z,69.4286
2022-11-13T01:21:23.147Z,69.4286
2022-11-13T01:22:23.178Z,69.4286
2022-11-13T01:23:23.214Z,69.4286
2022-11-13T01:24:23.251Z,69.4286
2022-11-13T01:25:23.280Z,69.4286
2022-11-13T01:26:23.314Z,69.5
2022-11-13T01:27:23.351Z,69.4286
2022-11-13T01:28:23.377Z,69.3571
2022-11-13T01:29:23.411Z,69.3571
2022-11-13T01:30:23.450Z,69.3571
2022-11-13T01:31:23.484Z,69.3571
2022-11-13T01:32:23.517Z,69.3571
2022-11-13T01:33:23.547Z,69.3571
2022-11-13T01:34:23.579Z,69.3571
2022-11-13T01:35:23.607Z,69.4286
2022-11-13T01:36:23.647Z,69.4286
2022-11-13T01:37:23.687Z,69.5
2022-11-13T01:38:23.724Z,69.5714
2022-11-13T01:39:23.745Z,69.5714
2022-11-13T01:40:23.774Z,69.5714
2022-11-13T01:41:24.051Z,69.5
2022-11-13T01:42:23.839Z,69.5
2022-11-13T01:43:23.867Z,69.5
2022-11-13T01:44:23.905Z,69.5714
2022-11-13T01:45:23.937Z,69.5714
2022-11-13T01:46:23.964Z,69.5
2022-11-13T01:47:23.993Z,69.5
2022-11-13T01:48:24.028Z,69.5714
2022-11-13T01:49:24.062Z,69.5714
2022-11-13T01:50:24.094Z,69.6429
2022-11-13T01:51:24.131Z,69.6429
2022-11-13T01:52:24.159Z,69.7143
2022-11-13T01:53:24.191Z,69.7143
2022-11-13T01:54:24.227Z,69.7143
2022-11-13T01:55:24.257Z,69.7857
2022-11-13T01:56:24.295Z,69.7857
2022-11-13T01:57:24.330Z,69.8571
2022-11-13T01:58:24.538Z,69.9286
2022-11-13T01:59:24.393Z,70
2022-11-13T02:00:24.417Z,70.0714
2022-11-13T02:01:24.512Z,70
2022-11-13T02:02:24.489Z,70
2022-11-13T02:03:24.547Z,70
2022-11-13T02:04:24.565Z,70
2022-11-13T02:05:24.591Z,70.0714
2022-11-13T02:06:24.620Z,70.0714
2022-11-13T02:07:24.682Z,70.0714
2022-11-13T02:08:24.839Z,70.1429
2022-11-13T02:09:24.722Z,70.2143
2022-11-13T02:10:24.751Z,70.2857
2022-11-13T02:11:24.786Z,70.2857
2022-11-13T02:12:24.821Z,70.2857
2022-11-13T02:13:24.861Z,70.2857
2022-11-13T02:14:24.892Z,70.3571
2022-11-13T02:15:24.925Z,70.3571
2022-11-13T02:16:24.962Z,70.4286
2022-11-13T02:17:24.991Z,70.4286
2022-11-13T02:18:25.195Z,70.4286
2022-11-13T02:19:25.054Z,70.3571
2022-11-13T02:20:25.087Z,70.3571
2022-11-13T02:21:25.125Z,70.4286
2022-11-13T02:22:25.149Z,70.4286
2022-11-13T02:23:25.185Z,70.4286
2022-11-13T02:24:25.226Z,70.4286
2022-11-13T02:25:25.255Z,70.5
2022-11-13T02:26:25.297Z,70.5
2022-11-13T02:27:25.316Z,70.5
2022-11-13T02:28:25.775Z,70.6429
2022-11-13T02:29:25.393Z,70.6429
2022-11-13T02:30:27.262Z,70.6429
2022-11-13T02:31:25.452Z,70.6429
2022-11-13T02:32:25.489Z,70.7143
2022-11-13T02:33:25.522Z,70.7857
2022-11-13T02:34:25.553Z,70.7857
2022-11-13T02:35:25.582Z,70.7857
2022-11-13T02:36:25.623Z,70.7857
2022-11-13T02:37:25.647Z,70.7857
2022-11-13T02:38:26.025Z,70.8571
2022-11-13T02:39:25.707Z,70.8571
2022-11-13T02:40:25.744Z,70.8571
2022-11-13T02:41:25.782Z,70.7857
2022-11-13T02:42:25.826Z,70.8571
2022-11-13T02:43:25.857Z,70.8571
2022-11-13T02:44:25.884Z,70.9286
2022-11-13T02:45:25.919Z,71
2022-11-13T02:46:25.944Z,71.2143
2022-11-13T02:47:25.976Z,71.2143
2022-11-13T02:48:26.427Z,71.2143
2022-11-13T02:49:26.037Z,71.3571
2022-11-13T02:50:26.069Z,71.4286
2022-11-13T02:51:26.103Z,71.4286
2022-11-13T02:52:26.203Z,71.4286
2022-11-13T02:53:26.182Z,71.7143
2022-11-13T02:54:26.212Z,71.8571
2022-11-13T02:55:26.247Z,71.9286
2022-11-13T02:56:26.291Z,72.2143
2022-11-13T02:57:26.317Z,72.2143
2022-11-13T02:58:26.816Z,72.3571
2022-11-13T02:59:26.369Z,72.5714
2022-11-13T03:00:26.400Z,72.5714
2022-11-13T03:01:26.459Z,72.5714
2022-11-13T03:02:26.457Z,72.6429
2022-11-13T03:03:55.969Z,72.8571
2022-11-13T03:04:38.427Z,72.8571
2022-11-13T03:05:26.551Z,72.7857
2022-11-13T03:06:26.585Z,72.8571
2022-11-13T03:07:26.615Z,72.7857
2022-11-13T03:08:27.084Z,72.7143
2022-11-13T03:09:26.666Z,72.5
2022-11-13T03:10:26.703Z,72.7143
2022-11-13T03:11:26.736Z,73
2022-11-13T03:12:26.761Z,73.0714
2022-11-13T03:13:26.794Z,73.2143
2022-11-13T03:14:26.822Z,73.0714
2022-11-13T03:15:26.855Z,73.0714
2022-11-13T03:16:26.886Z,73.2857
2022-11-13T03:17:26.917Z,73.5
2022-11-13T03:18:27.203Z,73.5
2022-11-13T03:19:26.981Z,73.3571
2022-11-13T03:20:27.010Z,73.3571
2022-11-13T03:21:27.042Z,73.2857
2022-11-13T03:22:27.074Z,73.1429
2022-11-13T03:23:27.106Z,73.0714
2022-11-13T03:24:27.129Z,73.0714
2022-11-13T03:25:27.232Z,73.1429
2022-11-13T03:26:27.191Z,73.1429
2022-11-13T03:27:27.225Z,73.0714
2022-11-13T03:28:27.590Z,73.1429
2022-11-13T03:29:27.286Z,73.1429
2022-11-13T03:30:27.322Z,73.2143
2022-11-13T03:31:27.351Z,73.3571
2022-11-13T03:32:27.382Z,73.3571
2022-11-13T03:33:27.415Z,73.2857
2022-11-13T03:34:27.453Z,73.2857
2022-11-13T03:35:30.767Z,73.2857
2022-11-13T03:36:27.530Z,73.2857
2022-11-13T03:37:27.558Z,73.2857
2022-11-13T03:38:27.928Z,73.4286
2022-11-13T03:39:27.621Z,73.5
2022-11-13T03:40:27.649Z,73.5714
2022-11-13T03:41:27.687Z,73.5714
2022-11-13T03:42:27.719Z,73.5
2022-11-13T03:43:27.760Z,73.5
2022-11-13T03:44:27.795Z,73.5
2022-11-13T03:45:27.824Z,73.5
2022-11-13T03:46:27.866Z,73.4286
2022-11-13T03:47:27.906Z,73.3571
2022-11-13T03:48:28.225Z,73.4286
2022-11-13T03:49:27.969Z,73.4286
2022-11-13T03:50:28.002Z,73.5714
2022-11-13T03:51:28.034Z,73.5
2022-11-13T03:52:28.072Z,73.5714
2022-11-13T03:53:28.105Z,73.5714
2022-11-13T03:54:28.145Z,73.5
2022-11-13T03:55:28.174Z,73.5
2022-11-13T03:56:28.203Z,73.4286
2022-11-13T03:57:28.241Z,73.3571
2022-11-13T03:58:28.582Z,73.3571
2022-11-13T03:59:28.301Z,73.2857
2022-11-13T04:00:28.322Z,73.2857
2022-11-13T04:01:28.395Z,73.2857
2022-11-13T04:02:28.375Z,73.3571
2022-11-13T04:03:28.405Z,73.2857
2022-11-13T04:04:28.448Z,73.2857
2022-11-13T04:05:28.479Z,73.2857
2022-11-13T04:06:28.506Z,73.2143
2022-11-13T04:07:35.721Z,73.1429
2022-11-13T04:08:28.858Z,73.0714
2022-11-13T04:09:28.607Z,72.9286
2022-11-13T04:10:28.639Z,72.8571
2022-11-13T04:11:28.670Z,72.7857
2022-11-13T04:12:28.703Z,72.7857
2022-11-13T04:13:28.735Z,72.7143
2022-11-13T04:14:28.772Z,72.7143
2022-11-13T04:15:28.792Z,72.7143
2022-11-13T04:16:28.828Z,72.8571
2022-11-13T04:17:28.857Z,73
2022-11-13T04:18:29.243Z,73.1429
2022-11-13T04:19:28.920Z,73.2143
2022-11-13T04:20:28.956Z,73.3571
2022-11-13T04:21:28.988Z,73.4286
2022-11-13T04:22:29.030Z,73.5
2022-11-13T04:23:29.067Z,73.5
2022-11-13T04:24:29.090Z,73.5
2022-11-13T04:25:29.120Z,73.5
2022-11-13T04:26:29.158Z,73.4286
2022-11-13T04:27:29.187Z,73.3571
2022-11-13T04:28:29.537Z,73.3571
2022-11-13T04:29:29.243Z,73.3571
2022-11-13T04:30:29.272Z,73.2857
2022-11-13T04:31:29.303Z,73.2143
2022-11-13T04:32:29.333Z,73.2143
2022-11-13T04:33:29.362Z,73.1429
2022-11-13T04:34:29.401Z,73.1429
2022-11-13T04:35:29.431Z,73.1429
2022-11-13T04:36:29.472Z,73.1429
2022-11-13T04:37:29.505Z,73.1429
2022-11-13T04:38:29.865Z,73.1429
2022-11-13T04:39:29.561Z,73.0714
2022-11-13T04:40:29.601Z,73.0714
2022-11-13T04:41:29.631Z,73.0714
2022-11-13T04:42:29.658Z,73
2022-11-13T04:43:29.690Z,72.9286
2022-11-13T04:44:29.731Z,72.8571
2022-11-13T04:45:29.755Z,72.7857
2022-11-13T04:46:29.787Z,72.7143
2022-11-13T04:47:29.821Z,72.7857
2022-11-13T04:48:30.179Z,72.8571
2022-11-13T04:49:29.890Z,73
2022-11-13T04:50:29.921Z,73
2022-11-13T04:51:29.950Z,73
2022-11-13T04:52:29.983Z,73.0714
2022-11-13T04:53:30.014Z,73.1429
2022-11-13T04:54:30.055Z,73.2143
2022-11-13T04:55:30.109Z,73.2143
2022-11-13T04:56:30.116Z,73.1429
2022-11-13T04:57:30.146Z,73.2143
2022-11-13T04:58:30.606Z,73.2143
2022-11-13T04:59:30.206Z,73.1429
2022-11-13T05:00:30.240Z,73.2143
2022-11-13T05:01:30.411Z,73.2143
2022-11-13T05:02:30.303Z,73.2857
2022-11-13T05:03:30.337Z,73.2857
2022-11-13T05:04:30.364Z,73.3571
2022-11-13T05:05:30.389Z,73.3571
2022-11-13T05:06:30.423Z,73.3571
2022-11-13T05:07:30.453Z,73.3571
2022-11-13T05:08:30.592Z,73.3571
2022-11-13T05:09:30.508Z,73.3571
2022-11-13T05:10:30.538Z,73.3571
2022-11-13T05:11:30.575Z,73.2857
2022-11-13T05:12:30.615Z,73.2857
2022-11-13T05:13:30.650Z,73.2143
2022-11-13T05:14:30.675Z,73.1429
2022-11-13T05:15:30.707Z,73.1429
2022-11-13T05:16:30.743Z,73.0714
2022-11-13T05:17:30.769Z,73.0714
2022-11-13T05:18:31.117Z,73.0714
2022-11-13T05:19:30.829Z,73.0714
2022-11-13T05:20:30.866Z,73.0714
2022-11-13T05:21:30.893Z,73.0714
2022-11-13T05:22:30.921Z,73.1429
2022-11-13T05:23:30.954Z,73.1429
2022-11-13T05:24:30.992Z,73.1429
2022-11-13T05:25:31.029Z,73.1429
2022-11-13T05:26:31.057Z,73.0714
2022-11-13T05:27:31.098Z,73
2022-11-13T05:28:31.410Z,73
2022-11-13T05:29:31.172Z,72.9286
2022-11-13T05:30:31.200Z,72.9286
2022-11-13T05:31:31.236Z,72.8571
2022-11-13T05:32:31.267Z,72.8571
2022-11-13T05:33:31.299Z,72.8571
2022-11-13T05:34:31.336Z,72.8571
2022-11-13T05:35:31.361Z,72.8571
2022-11-13T05:36:31.388Z,72.8571
2022-11-13T05:37:31.426Z,72.7857
2022-11-13T05:38:31.631Z,72.7857
2022-11-13T05:39:31.502Z,72.7857
2022-11-13T05:40:31.532Z,72.7857
2022-11-13T05:41:31.570Z,72.7857
2022-11-13T05:42:31.605Z,72.7857
2022-11-13T05:43:31.628Z,72.7857
2022-11-13T05:44:31.673Z,72.7857
2022-11-13T05:45:31.709Z,72.7857
2022-11-13T05:46:31.751Z,72.7857
2022-11-13T05:47:31.787Z,72.7143
2022-11-13T05:48:32.009Z,72.7143
2022-11-13T05:49:31.858Z,72.6429
2022-11-13T05:50:31.884Z,72.6429
2022-11-13T05:51:31.919Z,72.6429
2022-11-13T05:52:31.943Z,72.7143
2022-11-13T05:53:31.982Z,72.6429
2022-11-13T05:54:32.012Z,72.5
2022-11-13T05:55:32.041Z,72.4286
2022-11-13T05:56:32.069Z,72.3571
2022-11-13T05:57:32.102Z,72.3571
2022-11-13T05:58:32.128Z,72.3571
2022-11-13T05:59:32.157Z,72.2857
2022-11-13T06:00:32.179Z,72.2143
2022-11-13T06:01:32.283Z,72.0714
2022-11-13T06:02:32.242Z,72
2022-11-13T06:03:32.275Z,71.9286
2022-11-13T06:04:32.301Z,71.9286
2022-11-13T06:05:32.336Z,71.9286
2022-11-13T06:06:32.357Z,71.8571
2022-11-13T06:07:32.390Z,71.8571
2022-11-13T06:08:32.414Z,71.7857
2022-11-13T06:09:32.447Z,71.7857
2022-11-13T06:10:32.478Z,71.7857
2022-11-13T06:11:32.515Z,71.7857
2022-11-13T06:12:32.542Z,71.7143
2022-11-13T06:13:32.562Z,71.5714
2022-11-13T06:14:32.592Z,71.5714
2022-11-13T06:15:32.620Z,71.5714
2022-11-13T06:16:32.655Z,71.5714
2022-11-13T06:17:32.684Z,71.5
2022-11-13T06:18:33.282Z,71.5
2022-11-13T06:19:32.750Z,71.4286
2022-11-13T06:20:32.782Z,71.4286
2022-11-13T06:21:32.809Z,71.5
2022-11-13T06:22:32.843Z,71.4286
2022-11-13T06:23:32.865Z,71.3571
2022-11-13T06:24:32.885Z,71.2857
2022-11-13T06:25:32.923Z,71.3571
2022-11-13T06:26:32.957Z,71.4286
2022-11-13T06:27:32.990Z,71.3571
2022-11-13T06:28:33.016Z,71.2857
2022-11-13T06:29:33.054Z,71.2143
2022-11-13T06:30:33.083Z,71.2857
2022-11-13T06:31:33.115Z,71.2143
2022-11-13T06:32:33.142Z,71.2143
2022-11-13T06:33:33.171Z,71.2143
2022-11-13T06:34:33.206Z,71.2143
2022-11-13T06:35:33.239Z,71.2143
2022-11-13T06:36:33.273Z,71.2143
2022-11-13T06:37:34.859Z,71.2857
2022-11-13T06:38:33.403Z,71.2857
2022-11-13T06:39:33.349Z,71.2857
2022-11-13T06:40:33.386Z,71.2143
2022-11-13T06:41:33.416Z,71.2143
2022-11-13T06:42:33.446Z,71.1429
2022-11-13T06:43:33.482Z,71
2022-11-13T06:44:33.510Z,71
2022-11-13T06:45:33.535Z,70.9286
2022-11-13T06:46:33.576Z,70.9286
2022-11-13T06:47:33.611Z,70.9286
2022-11-13T06:48:33.647Z,70.9286
2022-11-13T06:49:33.683Z,70.8571
2022-11-13T06:50:33.716Z,70.8571
2022-11-13T06:51:33.750Z,70.8571
2022-11-13T06:52:33.785Z,70.7857
2022-11-13T06:53:33.813Z,70.7857
2022-11-13T06:54:33.852Z,70.7857
2022-11-13T06:55:33.873Z,70.8571
2022-11-13T06:56:33.905Z,70.7143
2022-11-13T06:57:33.936Z,70.7143
2022-11-13T06:58:33.971Z,70.7857
2022-11-13T06:59:34.010Z,70.7143
2022-11-13T07:00:37.022Z,70.7143
2022-11-13T07:01:34.164Z,70.7857
2022-11-13T07:02:34.101Z,70.7857
2022-11-13T07:03:34.130Z,70.7857
2022-11-13T07:04:34.158Z,70.7857
2022-11-13T07:05:34.191Z,70.7143
2022-11-13T07:06:40.066Z,70.7857
2022-11-13T07:07:34.242Z,70.8571
2022-11-13T07:08:34.281Z,70.8571
2022-11-13T07:09:34.310Z,70.7857
2022-11-13T07:10:34.341Z,70.8571
2022-11-13T07:11:34.371Z,70.7857
2022-11-13T07:12:34.399Z,70.8571
2022-11-13T07:13:34.437Z,70.9286
2022-11-13T07:14:34.465Z,70.9286
2022-11-13T07:15:34.492Z,70.8571
2022-11-13T07:16:56.270Z,70.8571
2022-11-13T07:17:34.551Z,70.8571
2022-11-13T07:18:34.589Z,70.8571
2022-11-13T07:19:34.614Z,70.8571
2022-11-13T07:20:34.640Z,70.8571
2022-11-13T07:21:34.674Z,70.7857
2022-11-13T07:22:34.700Z,70.7857
2022-11-13T07:23:34.737Z,70.7857
2022-11-13T07:24:34.765Z,70.7857
2022-11-13T07:25:34.805Z,70.7857
2022-11-13T07:26:34.831Z,70.8571
2022-11-13T07:27:34.871Z,70.9286
2022-11-13T07:28:34.898Z,70.9286
2022-11-13T07:29:34.923Z,71
2022-11-13T07:30:34.961Z,70.9286
2022-11-13T07:31:34.980Z,71
2022-11-13T07:32:35.005Z,71
2022-11-13T07:33:35.043Z,71
2022-11-13T07:34:35.077Z,71
2022-11-13T07:35:35.104Z,71
2022-11-13T07:36:35.141Z,71
2022-11-13T07:37:35.175Z,71
2022-11-13T07:38:35.213Z,71
2022-11-13T07:39:35.230Z,70.9286
2022-11-13T07:40:35.262Z,71
2022-11-13T07:41:35.286Z,71
2022-11-13T07:42:35.310Z,71
2022-11-13T07:43:35.340Z,70.9286
2022-11-13T07:44:53.640Z,70.8571
2022-11-13T07:45:35.397Z,70.7857
2022-11-13T07:46:35.431Z,70.8571
2022-11-13T07:47:35.461Z,70.8571
2022-11-13T07:48:35.496Z,70.8571
2022-11-13T07:49:35.519Z,70.7857
2022-11-13T07:50:35.547Z,70.8571
2022-11-13T07:51:35.575Z,70.8571
2022-11-13T07:52:35.607Z,70.7857
2022-11-13T07:53:35.639Z,70.8571
2022-11-13T07:54:35.671Z,70.8571
2022-11-13T07:55:35.700Z,70.8571
2022-11-13T07:56:35.731Z,70.8571
2022-11-13T07:57:35.759Z,70.8571
2022-11-13T07:58:35.798Z,70.9286
2022-11-13T07:59:35.817Z,70.9286
2022-11-13T08:00:35.993Z,70.9286
2022-11-13T08:01:35.877Z,70.8571
2022-11-13T08:02:35.918Z,70.9286
2022-11-13T08:03:35.950Z,71
2022-11-13T08:04:35.969Z,71
2022-11-13T08:05:36.004Z,71
2022-11-13T08:06:36.035Z,71
2022-11-13T08:07:36.071Z,71
2022-11-13T08:08:36.099Z,71
2022-11-13T08:09:36.132Z,71
2022-11-13T08:10:36.164Z,71
2022-11-13T08:11:36.201Z,71
2022-11-13T08:12:36.242Z,70.9286
2022-11-13T08:13:36.278Z,70.9286
2022-11-13T08:14:36.312Z,70.9286
2022-11-13T08:15:36.337Z,70.9286
2022-11-13T08:16:36.374Z,70.9286
2022-11-13T08:17:36.404Z,70.9286
2022-11-13T08:18:36.436Z,70.9286
2022-11-13T08:19:36.474Z,71
2022-11-13T08:20:36.509Z,71
2022-11-13T08:21:36.546Z,71
2022-11-13T08:22:36.577Z,71
2022-11-13T08:23:36.617Z,71
2022-11-13T08:24:36.643Z,71
2022-11-13T08:25:36.678Z,71
2022-11-13T08:26:36.712Z,70.9286
2022-11-13T08:27:36.734Z,70.9286
2022-11-13T08:28:36.768Z,70.9286
2022-11-13T08:29:36.795Z,70.9286
2022-11-13T08:30:36.837Z,70.8571
2022-11-13T08:31:36.856Z,70.8571
2022-11-13T08:32:36.885Z,70.8571
2022-11-13T08:33:36.918Z,70.7857
2022-11-13T08:34:36.940Z,70.7857
2022-11-13T08:35:36.979Z,70.7857
2022-11-13T08:36:37.000Z,70.8571
2022-11-13T08:37:37.023Z,70.7857
2022-11-13T08:38:37.060Z,70.7857
2022-11-13T08:39:37.086Z,70.6429
2022-11-13T08:40:37.125Z,70.5714
2022-11-13T08:41:37.150Z,70.5
2022-11-13T08:42:37.183Z,70.5714
2022-11-13T08:43:37.224Z,70.5
2022-11-13T08:44:37.254Z,70.4286
2022-11-13T08:45:37.282Z,70.3571
2022-11-13T08:46:37.316Z,70.3571
2022-11-13T08:47:37.347Z,70.2143
2022-11-13T08:48:37.380Z,70.2143
2022-11-13T08:49:37.405Z,70.1429
2022-11-13T08:50:37.431Z,70.2143
2022-11-13T08:51:37.460Z,70.2143
2022-11-13T08:52:37.486Z,70.2143
2022-11-13T08:53:37.522Z,70.2857
2022-11-13T08:54:37.541Z,70.2857
2022-11-13T08:55:37.576Z,70.2857
2022-11-13T08:56:37.604Z,70.2857
2022-11-13T08:57:37.633Z,70.2857
2022-11-13T08:58:37.668Z,70.2857
2022-11-13T08:59:37.716Z,70.3571
2022-11-13T09:00:37.742Z,70.3571
2022-11-13T09:01:37.778Z,70.4286
2022-11-13T09:02:37.802Z,70.4286
2022-11-13T09:03:37.919Z,70.4286
2022-11-13T09:04:37.862Z,70.4286
2022-11-13T09:05:37.892Z,70.3571
2022-11-13T09:06:37.988Z,70.2857
2022-11-13T09:07:37.951Z,70.2857
2022-11-13T09:08:37.985Z,70.2857
2022-11-13T09:09:38.013Z,70.2857
2022-11-13T09:10:38.049Z,70.3571
2022-11-13T09:11:38.073Z,70.2857
2022-11-13T09:12:38.095Z,70.1429
2022-11-13T09:13:43.760Z,70
2022-11-13T09:14:38.159Z,69.8571
2022-11-13T09:15:38.180Z,69.9286
2022-11-13T09:16:38.218Z,69.9286
2022-11-13T09:17:38.250Z,69.7857
2022-11-13T09:18:38.279Z,69.7857
2022-11-13T09:19:38.314Z,69.7857
2022-11-13T09:20:38.336Z,69.7857
2022-11-13T09:21:38.363Z,69.8571
2022-11-13T09:22:38.396Z,69.8571
2022-11-13T09:23:38.429Z,69.9286
2022-11-13T09:24:38.465Z,69.8571
2022-11-13T09:25:38.515Z,69.7857
2022-11-13T09:26:38.531Z,69.7857
2022-11-13T09:27:38.560Z,69.7857
2022-11-13T09:28:38.595Z,69.7143
2022-11-13T09:29:38.624Z,69.6429
2022-11-13T09:30:38.662Z,69.6429
2022-11-13T09:31:38.696Z,69.6429
2022-11-13T09:32:38.716Z,69.4286
2022-11-13T09:33:38.750Z,69.2857
2022-11-13T09:34:38.782Z,69.4286
2022-11-13T09:35:38.805Z,69.5
2022-11-13T09:36:38.822Z,69.4286
2022-11-13T09:37:38.867Z,69.2857
2022-11-13T09:38:38.888Z,69.2143
2022-11-13T09:39:38.921Z,69
2022-11-13T09:40:38.950Z,68.8571
2022-11-13T09:41:38.984Z,68.7857
2022-11-13T09:42:39.007Z,68.7857
2022-11-13T09:43:39.047Z,68.5714
2022-11-13T09:44:39.082Z,68.5
2022-11-13T09:45:39.106Z,68.4286
2022-11-13T09:46:39.139Z,68.2143
2022-11-13T09:47:39.174Z,68.1429
2022-11-13T09:48:39.202Z,68.1429
2022-11-13T09:49:39.237Z,68.1429
2022-11-13T09:50:39.261Z,68
2022-11-13T09:51:39.304Z,68.0714
2022-11-13T09:52:39.334Z,68.1429
2022-11-13T09:53:39.359Z,68
2022-11-13T09:54:39.390Z,67.8571
2022-11-13T09:55:39.429Z,67.8571
2022-11-13T09:56:39.469Z,67.7857
2022-11-13T09:57:39.501Z,67.7143
2022-11-13T09:58:39.537Z,67.7143
2022-11-13T09:59:39.569Z,67.5
2022-11-13T10:00:39.675Z,67.5
2022-11-13T10:01:39.629Z,67.5
2022-11-13T10:02:39.666Z,67.4286
2022-11-13T10:03:59.856Z,67.5
2022-11-13T10:04:39.718Z,67.5
2022-11-13T10:05:39.752Z,67.5714
2022-11-13T10:06:39.894Z,67.6429
2022-11-13T10:07:39.809Z,67.4286
2022-11-13T10:08:39.841Z,67.4286
2022-11-13T10:09:39.870Z,67.2143
2022-11-13T10:10:39.902Z,67.2143
2022-11-13T10:11:39.928Z,67.1429
2022-11-13T10:12:39.966Z,67.2143
2022-11-13T10:13:39.996Z,67.0714
2022-11-13T10:14:40.032Z,67
2022-11-13T10:15:40.064Z,67.0714
2022-11-13T10:16:40.099Z,66.7857
2022-11-13T10:17:40.131Z,66.7857
2022-11-13T10:18:40.177Z,66.7857
2022-11-13T10:19:40.196Z,66.7143
2022-11-13T10:20:40.222Z,66.7143
2022-11-13T10:21:40.249Z,66.7143
2022-11-13T10:22:40.288Z,66.4286
2022-11-13T10:23:40.313Z,66.4286
2022-11-13T10:24:40.342Z,66.1429
2022-11-13T10:25:40.373Z,65.7857
2022-11-13T10:26:40.404Z,65.7857
2022-11-13T10:27:40.519Z,65.9286
2022-11-13T10:28:51.139Z,65.5714
2022-11-13T10:29:44.659Z,65.3571
2022-11-13T10:30:40.529Z,65.3571
2022-11-13T10:31:40.558Z,65.2143
2022-11-13T10:32:40.587Z,65.3571
2022-11-13T10:33:40.623Z,65.2143
2022-11-13T10:34:40.651Z,65.1429
2022-11-13T10:35:40.687Z,65.0714
2022-11-13T10:36:40.723Z,65.0714
2022-11-13T10:37:40.743Z,64.8571
2022-11-13T10:38:40.774Z,64.9286
2022-11-13T10:39:40.809Z,64.7143
2022-11-13T10:40:40.845Z,64.9286
2022-11-13T10:41:40.867Z,65.0714
2022-11-13T10:42:40.895Z,65.0714
2022-11-13T10:43:40.929Z,65.1429
2022-11-13T10:44:40.957Z,65
2022-11-13T10:45:40.989Z,64.8571
2022-11-13T10:46:41.017Z,65
2022-11-13T10:48:03.213Z,65
2022-11-13T10:48:41.076Z,64.8571
2022-11-13T10:49:41.109Z,64.5714
2022-11-13T10:50:41.145Z,64.5
2022-11-13T10:51:41.174Z,64.6429
2022-11-13T10:52:41.207Z,64.7143
2022-11-13T10:53:41.239Z,64.9286
2022-11-13T10:54:41.266Z,64.7857
2022-11-13T10:55:41.300Z,64.5
2022-11-13T10:56:41.334Z,64.5
2022-11-13T10:57:41.372Z,64.3571
2022-11-13T10:58:41.387Z,64.5
2022-11-13T10:59:41.415Z,64.5
2022-11-13T11:00:41.575Z,64.5714
2022-11-13T11:01:41.550Z,64.7143
2022-11-13T11:02:41.500Z,64.8571
2022-11-13T11:03:41.531Z,64.6429
2022-11-13T11:04:41.563Z,64.5
2022-11-13T11:05:41.594Z,64.0714
2022-11-13T11:07:17.695Z,63.7857
2022-11-13T11:07:41.688Z,63.7857
2022-11-13T11:08:41.695Z,64
2022-11-13T11:09:41.718Z,64
2022-11-13T11:10:41.745Z,64.0714
2022-11-13T11:11:41.781Z,64.1429
2022-11-13T11:12:41.821Z,63.7857
2022-11-13T11:13:41.849Z,63.7143
2022-11-13T11:14:41.867Z,63.5714
2022-11-13T11:15:41.896Z,63.5714
2022-11-13T11:16:41.920Z,63.6429
2022-11-13T11:17:41.947Z,63.5714
2022-11-13T11:18:41.980Z,63.4286
2022-11-13T11:19:42.011Z,63.2857
2022-11-13T11:20:42.041Z,63.3571
2022-11-13T11:21:42.077Z,63.4286
2022-11-13T11:22:42.095Z,63.4286
2022-11-13T11:23:42.125Z,63.4286
2022-11-13T11:24:42.157Z,63.5
2022-11-13T11:25:42.190Z,63.2857
2022-11-13T11:26:42.218Z,63
2022-11-13T11:27:42.250Z,62.5714
2022-11-13T11:28:42.276Z,62.7143
2022-11-13T11:29:42.311Z,62.7143
2022-11-13T11:30:42.339Z,62.3571
2022-11-13T11:31:42.365Z,62.2143
2022-11-13T11:32:42.404Z,62.0714
2022-11-13T11:33:42.436Z,62
2022-11-13T11:34:42.467Z,62.1429
2022-11-13T11:35:42.503Z,62.1429
2022-11-13T11:36:42.532Z,62.0714
2022-11-13T11:37:42.565Z,62.0714
2022-11-13T11:38:42.597Z,61.9286
2022-11-13T11:39:42.632Z,62
2022-11-13T11:40:42.658Z,62
2022-11-13T11:41:42.687Z,62.0714
2022-11-13T11:42:42.717Z,62.2143
2022-11-13T11:43:42.748Z,62.1429
2022-11-13T11:44:42.783Z,62.2857
2022-11-13T11:45:42.814Z,62
2022-11-13T11:46:46.585Z,62.0714
2022-11-13T11:47:42.871Z,61.7857
2022-11-13T11:48:42.906Z,61.6429
2022-11-13T11:49:42.933Z,61.6429
2022-11-13T11:50:42.968Z,61.4286
2022-11-13T11:51:43.001Z,61.4286
2022-11-13T11:52:43.037Z,61.3571
2022-11-13T11:53:43.061Z,61.3571
2022-11-13T11:54:43.086Z,61.2143
2022-11-13T11:55:43.115Z,61
2022-11-13T11:56:43.148Z,60.9286
2022-11-13T11:57:43.184Z,61.0714
2022-11-13T11:58:43.208Z,61.0714
2022-11-13T11:59:43.237Z,61.1429
2022-11-13T12:00:43.302Z,61.1429
2022-11-13T12:01:43.294Z,61.2143
2022-11-13T12:02:43.319Z,61.2143
2022-11-13T12:03:43.344Z,61.0714
2022-11-13T12:04:43.416Z,60.8571
2022-11-13T12:05:43.464Z,60.7857
2022-11-13T12:06:43.497Z,60.7143
2022-11-13T12:07:43.460Z,61
2022-11-13T12:08:43.501Z,60.9286
2022-11-13T12:09:43.531Z,60.7857
2022-11-13T12:10:43.565Z,60.5714
2022-11-13T12:11:43.590Z,60.5714
2022-11-13T12:12:43.618Z,60.5
2022-11-13T12:13:43.647Z,60.4286
2022-11-13T12:14:43.692Z,60.6429
2022-11-13T12:15:43.728Z,60.8571
2022-11-13T12:16:43.755Z,61
2022-11-13T12:17:43.787Z,61.0714
2022-11-13T12:18:43.826Z,61.0714
2022-11-13T12:19:43.868Z,60.8571
2022-11-13T12:20:43.883Z,61.2143